sensor_id;sensor_type;location;lat;lon;timestamp;pressure;altitude;pressure_sealevel;temperature;humidity
8699;BME280;4386;51.236;6.742;2023-03-03T00:00:35;101834.75;;;3.75;74.37
8699;BME280;4386;51.236;6.742;2023-03-03T00:01:41;101834.75;;;3.75;74.41
8699;BME280;4386;51.236;6.742;2023-03-03T00:03:00;101842.63;;;3.73;73.97
8699;BME280;4386;51.236;6.742;2023-03-03T00:04:08;101836.56;;;3.73;73.96
8699;BME280;4386;51.236;6.742;2023-03-03T00:05:31;101837.50;;;3.70;74.26
8699;BME280;4386;51.236;6.742;2023-03-03T00:06:53;101832.31;;;3.68;74.27
8699;BME280;4386;51.236;6.742;2023-03-03T00:08:16;101838.47;;;3.67;74.29
8699;BME280;4386;51.236;6.742;2023-03-03T00:09:38;101828.94;;;3.65;74.10
8699;BME280;4386;51.236;6.742;2023-03-03T00:11:00;101836.84;;;3.63;74.69
8699;BME280;4386;51.236;6.742;2023-03-03T00:12:27;101833.41;;;3.61;74.44
8699;BME280;4386;51.236;6.742;2023-03-03T00:13:52;101833.50;;;3.58;74.58
8699;BME280;4386;51.236;6.742;2023-03-03T00:15:18;101841.47;;;3.55;74.64
8699;BME280;4386;51.236;6.742;2023-03-03T00:16:39;101839.75;;;3.54;74.62
8699;BME280;4386;51.236;6.742;2023-03-03T00:18:16;101851.13;;;3.53;74.95
8699;BME280;4386;51.236;6.742;2023-03-03T00:19:38;101845.00;;;3.54;74.95
8699;BME280;4386;51.236;6.742;2023-03-03T00:21:03;101844.97;;;3.56;74.74
8699;BME280;4386;51.236;6.742;2023-03-03T00:22:34;101842.16;;;3.60;75.17
8699;BME280;4386;51.236;6.742;2023-03-03T00:24:19;101843.81;;;3.64;75.01
8699;BME280;4386;51.236;6.742;2023-03-03T00:25:43;101849.84;;;3.66;74.81
8699;BME280;4386;51.236;6.742;2023-03-03T00:27:16;101837.69;;;3.64;75.02
8699;BME280;4386;51.236;6.742;2023-03-03T00:28:43;101849.78;;;3.70;74.87
8699;BME280;4386;51.236;6.742;2023-03-03T00:30:16;101842.81;;;3.68;75.18
8699;BME280;4386;51.236;6.742;2023-03-03T00:31:41;101841.91;;;3.70;75.15
8699;BME280;4386;51.236;6.742;2023-03-03T00:33:14;101851.56;;;3.67;75.11
8699;BME280;4386;51.236;6.742;2023-03-03T00:34:41;101849.81;;;3.68;75.08
8699;BME280;4386;51.236;6.742;2023-03-03T00:36:29;101845.44;;;3.68;75.23
8699;BME280;4386;51.236;6.742;2023-03-03T00:37:55;101853.19;;;3.72;75.24
8699;BME280;4386;51.236;6.742;2023-03-03T00:39:22;101861.81;;;3.75;75.17
8699;BME280;4386;51.236;6.742;2023-03-03T00:40:47;101864.38;;;3.77;75.12
8699;BME280;4386;51.236;6.742;2023-03-03T00:42:11;101858.31;;;3.76;75.17
8699;BME280;4386;51.236;6.742;2023-03-03T00:43:34;101859.13;;;3.77;75.25
8699;BME280;4386;51.236;6.742;2023-03-03T00:44:58;101862.59;;;3.79;75.36
8699;BME280;4386;51.236;6.742;2023-03-03T00:46:22;101865.09;;;3.82;75.17
8699;BME280;4386;51.236;6.742;2023-03-03T00:47:46;101860.66;;;3.84;75.21
8699;BME280;4386;51.236;6.742;2023-03-03T00:49:25;101863.25;;;3.85;75.21
8699;BME280;4386;51.236;6.742;2023-03-03T00:50:50;101865.81;;;3.87;75.26
8699;BME280;4386;51.236;6.742;2023-03-03T00:52:16;101863.19;;;3.87;75.23
8699;BME280;4386;51.236;6.742;2023-03-03T00:53:38;101870.25;;;3.85;75.32
8699;BME280;4386;51.236;6.742;2023-03-03T00:55:00;101858.88;;;3.86;75.46
8699;BME280;4386;51.236;6.742;2023-03-03T00:56:23;101862.28;;;3.88;75.39
8699;BME280;4386;51.236;6.742;2023-03-03T00:57:46;101865.69;;;3.90;75.27
8699;BME280;4386;51.236;6.742;2023-03-03T00:59:08;101863.91;;;3.92;75.53
8699;BME280;4386;51.236;6.742;2023-03-03T01:00:31;101869.06;;;3.95;75.69
8699;BME280;4386;51.236;6.742;2023-03-03T01:01:54;101866.34;;;3.96;75.40
8699;BME280;4386;51.236;6.742;2023-03-03T01:03:19;101868.06;;;3.99;75.26
8699;BME280;4386;51.236;6.742;2023-03-03T01:04:48;101868.84;;;4.01;75.40
8699;BME280;4386;51.236;6.742;2023-03-03T01:06:11;101867.13;;;4.00;75.53
8699;BME280;4386;51.236;6.742;2023-03-03T01:07:34;101868.84;;;4.01;75.22
8699;BME280;4386;51.236;6.742;2023-03-03T01:08:56;101867.13;;;4.00;75.32
8699;BME280;4386;51.236;6.742;2023-03-03T01:10:18;101874.94;;;4.01;75.16
8699;BME280;4386;51.236;6.742;2023-03-03T01:11:40;101875.91;;;3.99;75.33
8699;BME280;4386;51.236;6.742;2023-03-03T01:13:03;101865.44;;;3.99;75.24
8699;BME280;4386;51.236;6.742;2023-03-03T01:14:25;101881.09;;;4.00;75.37
8699;BME280;4386;51.236;6.742;2023-03-03T01:15:49;101879.34;;;4.01;75.82
8699;BME280;4386;51.236;6.742;2023-03-03T01:17:12;101878.47;;;4.00;75.33
8699;BME280;4386;51.236;6.742;2023-03-03T01:18:34;101880.22;;;4.00;75.68
8699;BME280;4386;51.236;6.742;2023-03-03T01:19:59;101874.19;;;3.98;75.57
8699;BME280;4386;51.236;6.742;2023-03-03T01:21:20;101877.59;;;4.00;75.51
8699;BME280;4386;51.236;6.742;2023-03-03T01:22:43;101884.56;;;4.01;75.57
8699;BME280;4386;51.236;6.742;2023-03-03T01:24:04;101881.06;;;4.02;75.62
8699;BME280;4386;51.236;6.742;2023-03-03T01:25:27;101880.09;;;4.04;75.46
8699;BME280;4386;51.236;6.742;2023-03-03T01:26:50;101873.94;;;4.05;75.62
8699;BME280;4386;51.236;6.742;2023-03-03T01:28:12;101872.09;;;4.09;75.61
8699;BME280;4386;51.236;6.742;2023-03-03T01:29:34;101882.47;;;4.12;75.46
8699;BME280;4386;51.236;6.742;2023-03-03T01:30:59;101886.84;;;4.11;75.46
8699;BME280;4386;51.236;6.742;2023-03-03T01:32:23;101880.84;;;4.08;75.36
8699;BME280;4386;51.236;6.742;2023-03-03T01:33:45;101882.66;;;4.06;75.52
8699;BME280;4386;51.236;6.742;2023-03-03T01:35:09;101890.53;;;4.06;75.82
8699;BME280;4386;51.236;6.742;2023-03-03T01:36:31;101881.81;;;4.05;75.55
8699;BME280;4386;51.236;6.742;2023-03-03T01:37:54;101880.03;;;4.06;75.62
8699;BME280;4386;51.236;6.742;2023-03-03T01:39:16;101886.09;;;4.08;75.43
8699;BME280;4386;51.236;6.742;2023-03-03T01:40:39;101875.59;;;4.08;75.65
8699;BME280;4386;51.236;6.742;2023-03-03T01:42:02;101884.28;;;4.10;75.61
8699;BME280;4386;51.236;6.742;2023-03-03T01:43:26;101883.38;;;4.11;75.69
8699;BME280;4386;51.236;6.742;2023-03-03T01:45:09;101892.09;;;4.11;75.40
8699;BME280;4386;51.236;6.742;2023-03-03T01:46:41;101889.53;;;4.10;75.66
8699;BME280;4386;51.236;6.742;2023-03-03T01:48:09;101882.59;;;4.09;75.82
8699;BME280;4386;51.236;6.742;2023-03-03T01:49:38;101884.34;;;4.08;75.66
8699;BME280;4386;51.236;6.742;2023-03-03T01:51:13;101885.19;;;4.09;75.64
8699;BME280;4386;51.236;6.742;2023-03-03T01:52:38;101887.81;;;4.09;75.73
8699;BME280;4386;51.236;6.742;2023-03-03T01:54:04;101887.84;;;4.07;75.50
8699;BME280;4386;51.236;6.742;2023-03-03T01:55:29;101889.63;;;4.07;75.65
8699;BME280;4386;51.236;6.742;2023-03-03T01:56:56;101884.38;;;4.07;75.55
8699;BME280;4386;51.236;6.742;2023-03-03T01:58:24;101875.59;;;4.08;75.45
8699;BME280;4386;51.236;6.742;2023-03-03T01:59:49;101877.41;;;4.06;75.71
8699;BME280;4386;51.236;6.742;2023-03-03T02:01:15;101876.56;;;4.05;75.40
8699;BME280;4386;51.236;6.742;2023-03-03T02:02:42;101880.13;;;4.03;75.54
8699;BME280;4386;51.236;6.742;2023-03-03T02:04:05;101877.56;;;4.01;75.64
8699;BME280;4386;51.236;6.742;2023-03-03T02:05:27;101879.34;;;4.01;75.64
8699;BME280;4386;51.236;6.742;2023-03-03T02:06:57;101877.59;;;4.00;75.76
8699;BME280;4386;51.236;6.742;2023-03-03T02:08:25;101873.41;;;3.96;75.58
8699;BME280;4386;51.236;6.742;2023-03-03T02:09:54;101877.81;;;3.94;75.75
8699;BME280;4386;51.236;6.742;2023-03-03T02:11:20;101881.41;;;3.91;75.86
8699;BME280;4386;51.236;6.742;2023-03-03T02:12:47;101883.13;;;3.92;75.70
8699;BME280;4386;51.236;6.742;2023-03-03T02:14:10;101874.38;;;3.92;75.91
8699;BME280;4386;51.236;6.742;2023-03-03T02:15:34;101874.38;;;3.92;75.66
8699;BME280;4386;51.236;6.742;2023-03-03T02:16:57;101872.66;;;3.91;75.51
8699;BME280;4386;51.236;6.742;2023-03-03T02:18:20;101870.13;;;3.89;75.78
8699;BME280;4386;51.236;6.742;2023-03-03T02:19:48;101876.25;;;3.88;75.48
8699;BME280;4386;51.236;6.742;2023-03-03T02:21:13;101882.34;;;3.89;75.86
8699;BME280;4386;51.236;6.742;2023-03-03T02:22:41;101878.81;;;3.90;75.57
8699;BME280;4386;51.236;6.742;2023-03-03T02:24:12;101883.16;;;3.91;75.66
8699;BME280;4386;51.236;6.742;2023-03-03T02:25:43;101874.28;;;3.95;75.79
8699;BME280;4386;51.236;6.742;2023-03-03T02:27:11;101874.19;;;3.98;75.55
8699;BME280;4386;51.236;6.742;2023-03-03T02:28:36;101872.38;;;4.00;75.66
8699;BME280;4386;51.236;6.742;2023-03-03T02:30:08;101879.34;;;4.01;75.45
8699;BME280;4386;51.236;6.742;2023-03-03T02:31:32;101874.09;;;4.01;75.69
8699;BME280;4386;51.236;6.742;2023-03-03T02:32:55;101873.13;;;4.03;75.55
8699;BME280;4386;51.236;6.742;2023-03-03T02:34:16;101885.34;;;4.04;75.66
8699;BME280;4386;51.236;6.742;2023-03-03T02:35:40;101887.06;;;4.05;75.44
8699;BME280;4386;51.236;6.742;2023-03-03T02:37:02;101888.72;;;4.08;75.56
8699;BME280;4386;51.236;6.742;2023-03-03T02:38:27;101877.34;;;4.09;75.66
8699;BME280;4386;51.236;6.742;2023-03-03T02:39:50;101891.25;;;4.11;75.45
8699;BME280;4386;51.236;6.742;2023-03-03T02:41:17;101875.50;;;4.11;75.40
8699;BME280;4386;51.236;6.742;2023-03-03T02:42:44;101881.63;;;4.11;75.45
8699;BME280;4386;51.236;6.742;2023-03-03T02:44:09;101883.31;;;4.12;75.49
8699;BME280;4386;51.236;6.742;2023-03-03T02:45:32;101880.66;;;4.14;75.35
8699;BME280;4386;51.236;6.742;2023-03-03T02:46:54;101885.91;;;4.14;75.55
8699;BME280;4386;51.236;6.742;2023-03-03T02:48:17;101880.69;;;4.12;75.29
8699;BME280;4386;51.236;6.742;2023-03-03T02:49:39;101879.03;;;4.10;75.37
8699;BME280;4386;51.236;6.742;2023-03-03T02:51:03;101877.22;;;4.12;75.45
8699;BME280;4386;51.236;6.742;2023-03-03T02:52:25;101883.28;;;4.14;75.48
8699;BME280;4386;51.236;6.742;2023-03-03T02:53:48;101877.06;;;4.16;75.65
8699;BME280;4386;51.236;6.742;2023-03-03T02:55:09;101881.34;;;4.19;75.34
8699;BME280;4386;51.236;6.742;2023-03-03T02:56:32;101879.47;;;4.22;75.55
8699;BME280;4386;51.236;6.742;2023-03-03T02:57:56;101890.72;;;4.26;75.39
8699;BME280;4386;51.236;6.742;2023-03-03T02:59:19;101897.59;;;4.30;75.35
8699;BME280;4386;51.236;6.742;2023-03-03T03:00:41;101893.22;;;4.31;75.39
8699;BME280;4386;51.236;6.742;2023-03-03T03:02:03;101894.06;;;4.31;75.29
8699;BME280;4386;51.236;6.742;2023-03-03T03:03:27;101896.72;;;4.30;75.29
8699;BME280;4386;51.236;6.742;2023-03-03T03:04:49;101900.34;;;4.26;75.36
8699;BME280;4386;51.236;6.742;2023-03-03T03:06:11;101910.91;;;4.24;75.36
8699;BME280;4386;51.236;6.742;2023-03-03T03:07:33;101905.78;;;4.21;75.47
8699;BME280;4386;51.236;6.742;2023-03-03T03:08:56;101899.72;;;4.19;75.47
8699;BME280;4386;51.236;6.742;2023-03-03T03:10:18;101909.50;;;4.14;75.42
8699;BME280;4386;51.236;6.742;2023-03-03T03:11:40;101901.75;;;4.11;75.63
8699;BME280;4386;51.236;6.742;2023-03-03T03:12:43;101901.84;;;4.08;75.75
8699;BME280;4386;51.236;6.742;2023-03-03T03:13:45;101906.25;;;4.06;75.77
8699;BME280;4386;51.236;6.742;2023-03-03T03:14:48;101899.25;;;4.06;75.83
8699;BME280;4386;51.236;6.742;2023-03-03T03:15:50;101899.25;;;4.06;76.02
8699;BME280;4386;51.236;6.742;2023-03-03T03:16:52;101900.13;;;4.07;75.83
8699;BME280;4386;51.236;6.742;2023-03-03T03:17:54;101905.47;;;4.04;76.06
8699;BME280;4386;51.236;6.742;2023-03-03T03:18:58;101906.25;;;4.06;76.14
8699;BME280;4386;51.236;6.742;2023-03-03T03:20:00;101901.06;;;4.04;76.03
8699;BME280;4386;51.236;6.742;2023-03-03T03:21:06;101902.81;;;4.05;75.87
8699;BME280;4386;51.236;6.742;2023-03-03T03:22:08;101908.03;;;4.05;76.00
8699;BME280;4386;51.236;6.742;2023-03-03T03:23:21;101900.13;;;4.07;75.91
8699;BME280;4386;51.236;6.742;2023-03-03T03:24:24;101911.47;;;4.07;75.88
8699;BME280;4386;51.236;6.742;2023-03-03T03:25:25;101912.31;;;4.08;75.72
8699;BME280;4386;51.236;6.742;2023-03-03T03:26:28;101907.97;;;4.07;75.92
8699;BME280;4386;51.236;6.742;2023-03-03T03:27:30;101910.59;;;4.07;75.97
8699;BME280;4386;51.236;6.742;2023-03-03T03:28:33;101915.84;;;4.07;75.72
8699;BME280;4386;51.236;6.742;2023-03-03T03:29:36;101913.28;;;4.05;76.21
8699;BME280;4386;51.236;6.742;2023-03-03T03:30:39;101912.44;;;4.05;75.92
8699;BME280;4386;51.236;6.742;2023-03-03T03:31:41;101914.22;;;4.03;76.09
8699;BME280;4386;51.236;6.742;2023-03-03T03:32:44;101910.81;;;4.01;75.91
8699;BME280;4386;51.236;6.742;2023-03-03T03:33:46;101915.25;;;3.99;76.12
8699;BME280;4386;51.236;6.742;2023-03-03T03:34:49;101905.66;;;3.98;76.12
8699;BME280;4386;51.236;6.742;2023-03-03T03:35:51;101910.91;;;3.98;76.27
8699;BME280;4386;51.236;6.742;2023-03-03T03:36:53;101912.63;;;3.99;76.13
8699;BME280;4386;51.236;6.742;2023-03-03T03:37:55;101916.06;;;4.01;76.20
8699;BME280;4386;51.236;6.742;2023-03-03T03:38:57;101910.69;;;4.04;76.17
8699;BME280;4386;51.236;6.742;2023-03-03T03:40:02;101919.38;;;4.06;76.05
8699;BME280;4386;51.236;6.742;2023-03-03T03:41:06;101921.00;;;4.10;76.02
8699;BME280;4386;51.236;6.742;2023-03-03T03:42:08;101920.09;;;4.11;76.01
8699;BME280;4386;51.236;6.742;2023-03-03T03:43:11;101919.19;;;4.12;75.97
8699;BME280;4386;51.236;6.742;2023-03-03T03:44:13;101919.19;;;4.12;75.76
8699;BME280;4386;51.236;6.742;2023-03-03T03:45:17;101917.38;;;4.14;75.67
8699;BME280;4386;51.236;6.742;2023-03-03T03:46:19;101912.91;;;4.16;75.84
8699;BME280;4386;51.236;6.742;2023-03-03T03:47:22;101915.50;;;4.17;75.83
8699;BME280;4386;51.236;6.742;2023-03-03T03:48:24;101909.41;;;4.17;75.68
8699;BME280;4386;51.236;6.742;2023-03-03T03:49:26;101899.81;;;4.16;75.81
8699;BME280;4386;51.236;6.742;2023-03-03T03:50:28;101907.69;;;4.16;75.71
8699;BME280;4386;51.236;6.742;2023-03-03T03:51:31;101904.22;;;4.15;75.81
8699;BME280;4386;51.236;6.742;2023-03-03T03:52:34;101908.53;;;4.16;75.72
8699;BME280;4386;51.236;6.742;2023-03-03T03:53:37;101910.31;;;4.16;75.97
8699;BME280;4386;51.236;6.742;2023-03-03T03:54:39;101914.66;;;4.17;75.75
8699;BME280;4386;51.236;6.742;2023-03-03T03:55:41;101923.41;;;4.16;75.71
8699;BME280;4386;51.236;6.742;2023-03-03T03:56:43;101918.13;;;4.17;75.73
8699;BME280;4386;51.236;6.742;2023-03-03T03:57:46;101915.53;;;4.16;75.60
8699;BME280;4386;51.236;6.742;2023-03-03T03:58:52;101919.09;;;4.15;75.70
8699;BME280;4386;51.236;6.742;2023-03-03T03:59:55;101922.66;;;4.12;75.58
8699;BME280;4386;51.236;6.742;2023-03-03T04:01:02;101921.00;;;4.10;75.72
8699;BME280;4386;51.236;6.742;2023-03-03T04:02:05;101917.56;;;4.08;75.71
8699;BME280;4386;51.236;6.742;2023-03-03T04:03:16;101915.84;;;4.07;75.87
8699;BME280;4386;51.236;6.742;2023-03-03T04:04:19;101915.94;;;4.04;75.74
8699;BME280;4386;51.236;6.742;2023-03-03T04:05:21;101908.97;;;4.03;75.87
8699;BME280;4386;51.236;6.742;2023-03-03T04:06:24;101912.53;;;4.02;75.89
8699;BME280;4386;51.236;6.742;2023-03-03T04:07:25;101907.28;;;4.02;75.88
8699;BME280;4386;51.236;6.742;2023-03-03T04:08:28;101907.28;;;4.02;76.02
8699;BME280;4386;51.236;6.742;2023-03-03T04:09:30;101912.47;;;4.03;76.11
8699;BME280;4386;51.236;6.742;2023-03-03T04:10:32;101910.69;;;4.04;75.93
8699;BME280;4386;51.236;6.742;2023-03-03T04:11:34;101911.56;;;4.04;75.93
8699;BME280;4386;51.236;6.742;2023-03-03T04:12:36;101906.31;;;4.04;75.95
8699;BME280;4386;51.236;6.742;2023-03-03T04:13:39;101911.56;;;4.04;75.91
8699;BME280;4386;51.236;6.742;2023-03-03T04:14:43;101915.84;;;4.07;76.12
8699;BME280;4386;51.236;6.742;2023-03-03T04:15:45;101908.84;;;4.07;75.79
8699;BME280;4386;51.236;6.742;2023-03-03T04:16:49;101901.94;;;4.05;75.87
8699;BME280;4386;51.236;6.742;2023-03-03T04:17:51;101908.88;;;4.06;75.77
8699;BME280;4386;51.236;6.742;2023-03-03T04:18:53;101907.19;;;4.05;75.89
8699;BME280;4386;51.236;6.742;2023-03-03T04:19:55;101910.69;;;4.04;75.89
8699;BME280;4386;51.236;6.742;2023-03-03T04:20:58;101909.84;;;4.03;75.96
8699;BME280;4386;51.236;6.742;2023-03-03T04:22:10;101921.19;;;4.04;75.79
8699;BME280;4386;51.236;6.742;2023-03-03T04:23:22;101924.72;;;4.03;75.83
8699;BME280;4386;51.236;6.742;2023-03-03T04:24:23;101921.28;;;4.01;75.66
8699;BME280;4386;51.236;6.742;2023-03-03T04:25:34;101929.19;;;3.99;75.67
8699;BME280;4386;51.236;6.742;2023-03-03T04:26:35;101922.19;;;4.00;76.03
8699;BME280;4386;51.236;6.742;2023-03-03T04:27:38;101922.19;;;4.00;75.94
8699;BME280;4386;51.236;6.742;2023-03-03T04:28:39;101924.81;;;4.00;75.79
8699;BME280;4386;51.236;6.742;2023-03-03T04:29:42;101927.53;;;3.97;75.96
8699;BME280;4386;51.236;6.742;2023-03-03T04:30:53;101929.25;;;3.98;76.01
8699;BME280;4386;51.236;6.742;2023-03-03T04:31:57;101927.50;;;3.98;76.03
8699;BME280;4386;51.236;6.742;2023-03-03T04:32:59;101921.44;;;3.96;75.84
8699;BME280;4386;51.236;6.742;2023-03-03T04:34:01;101922.34;;;3.95;75.99
8699;BME280;4386;51.236;6.742;2023-03-03T04:35:04;101926.78;;;3.93;75.94
8699;BME280;4386;51.236;6.742;2023-03-03T04:36:09;101927.69;;;3.92;75.77
8699;BME280;4386;51.236;6.742;2023-03-03T04:37:11;101932.97;;;3.91;76.13
8699;BME280;4386;51.236;6.742;2023-03-03T04:38:13;101932.09;;;3.90;76.17
8699;BME280;4386;51.236;6.742;2023-03-03T04:39:15;101934.72;;;3.90;75.81
8699;BME280;4386;51.236;6.742;2023-03-03T04:40:17;101932.19;;;3.89;76.17
8699;BME280;4386;51.236;6.742;2023-03-03T04:41:20;101928.72;;;3.87;75.83
8699;BME280;4386;51.236;6.742;2023-03-03T04:42:21;101934.06;;;3.84;76.02
8699;BME280;4386;51.236;6.742;2023-03-03T04:43:24;101941.13;;;3.82;76.11
8699;BME280;4386;51.236;6.742;2023-03-03T04:44:25;101936.84;;;3.79;75.98
8699;BME280;4386;51.236;6.742;2023-03-03T04:45:28;101930.78;;;3.77;76.44
8699;BME280;4386;51.236;6.742;2023-03-03T04:46:30;101935.13;;;3.78;76.33
8699;BME280;4386;51.236;6.742;2023-03-03T04:47:34;101929.88;;;3.78;76.62
8699;BME280;4386;51.236;6.742;2023-03-03T04:48:36;101931.63;;;3.78;76.15
8699;BME280;4386;51.236;6.742;2023-03-03T04:49:38;101932.53;;;3.77;76.31
8699;BME280;4386;51.236;6.742;2023-03-03T04:50:40;101921.16;;;3.78;76.28
8699;BME280;4386;51.236;6.742;2023-03-03T04:51:43;101927.38;;;3.74;76.14
8699;BME280;4386;51.236;6.742;2023-03-03T04:52:44;101926.50;;;3.75;76.47
8699;BME280;4386;51.236;6.742;2023-03-03T04:53:48;101923.88;;;3.75;76.32
8699;BME280;4386;51.236;6.742;2023-03-03T04:54:53;101920.34;;;3.76;76.04
8699;BME280;4386;51.236;6.742;2023-03-03T04:55:55;101924.72;;;3.75;76.53
8699;BME280;4386;51.236;6.742;2023-03-03T04:56:58;101929.09;;;3.75;76.45
8699;BME280;4386;51.236;6.742;2023-03-03T04:58:02;101936.06;;;3.76;76.27
8699;BME280;4386;51.236;6.742;2023-03-03T04:59:05;101936.06;;;3.76;76.29
8699;BME280;4386;51.236;6.742;2023-03-03T05:00:07;101936.06;;;3.76;76.44
8699;BME280;4386;51.236;6.742;2023-03-03T05:01:15;101938.63;;;3.77;76.52
8699;BME280;4386;51.236;6.742;2023-03-03T05:02:17;101933.34;;;3.79;76.64
8699;BME280;4386;51.236;6.742;2023-03-03T05:03:21;101936.78;;;3.81;76.77
8699;BME280;4386;51.236;6.742;2023-03-03T05:04:23;101933.25;;;3.82;76.50
8699;BME280;4386;51.236;6.742;2023-03-03T05:05:36;101938.41;;;3.85;76.47
8699;BME280;4386;51.236;6.742;2023-03-03T05:06:40;101930.44;;;3.88;76.32
8699;BME280;4386;51.236;6.742;2023-03-03T05:07:42;101937.41;;;3.89;76.25
8699;BME280;4386;51.236;6.742;2023-03-03T05:08:45;101937.31;;;3.92;76.35
8699;BME280;4386;51.236;6.742;2023-03-03T05:09:47;101938.13;;;3.94;76.10
8699;BME280;4386;51.236;6.742;2023-03-03T05:10:50;101934.59;;;3.95;76.24
8699;BME280;4386;51.236;6.742;2023-03-03T05:11:52;101934.50;;;3.98;76.31
8699;BME280;4386;51.236;6.742;2023-03-03T05:12:55;101938.84;;;3.99;76.38
8699;BME280;4386;51.236;6.742;2023-03-03T05:13:57;101938.00;;;3.98;76.12
8699;BME280;4386;51.236;6.742;2023-03-03T05:14:59;101947.63;;;3.98;76.09
8699;BME280;4386;51.236;6.742;2023-03-03T05:16:12;101940.75;;;3.94;76.12
8699;BME280;4386;51.236;6.742;2023-03-03T05:17:15;101942.56;;;3.92;76.30
8699;BME280;4386;51.236;6.742;2023-03-03T05:18:17;101950.47;;;3.90;76.21
8699;BME280;4386;51.236;6.742;2023-03-03T05:19:21;101939.13;;;3.90;76.17
8699;BME280;4386;51.236;6.742;2023-03-03T05:20:24;101949.59;;;3.90;76.19
8699;BME280;4386;51.236;6.742;2023-03-03T05:21:26;101944.34;;;3.90;75.88
8699;BME280;4386;51.236;6.742;2023-03-03T05:22:28;101942.66;;;3.89;76.42
8699;BME280;4386;51.236;6.742;2023-03-03T05:23:30;101946.19;;;3.88;76.09
8699;BME280;4386;51.236;6.742;2023-03-03T05:24:32;101941.91;;;3.85;76.22
8699;BME280;4386;51.236;6.742;2023-03-03T05:25:34;101942.75;;;3.86;76.07
8699;BME280;4386;51.236;6.742;2023-03-03T05:26:46;101945.41;;;3.84;76.09
8699;BME280;4386;51.236;6.742;2023-03-03T05:27:48;101947.16;;;3.84;76.30
8699;BME280;4386;51.236;6.742;2023-03-03T05:28:50;101941.13;;;3.82;76.11
8699;BME280;4386;51.236;6.742;2023-03-03T05:29:53;101942.91;;;3.80;76.11
8699;BME280;4386;51.236;6.742;2023-03-03T05:30:54;101943.78;;;3.80;76.31
8699;BME280;4386;51.236;6.742;2023-03-03T05:31:57;101946.41;;;3.80;76.59
8699;BME280;4386;51.236;6.742;2023-03-03T05:32:58;101942.91;;;3.80;76.58
8699;BME280;4386;51.236;6.742;2023-03-03T05:34:01;101942.03;;;3.81;76.28
8699;BME280;4386;51.236;6.742;2023-03-03T05:35:06;101939.31;;;3.84;76.38
8699;BME280;4386;51.236;6.742;2023-03-03T05:36:14;101939.22;;;3.87;76.45
8699;BME280;4386;51.236;6.742;2023-03-03T05:37:27;101937.41;;;3.89;76.10
8699;BME280;4386;51.236;6.742;2023-03-03T05:38:39;101939.97;;;3.90;76.40
8699;BME280;4386;51.236;6.742;2023-03-03T05:39:41;101945.19;;;3.92;76.06
8699;BME280;4386;51.236;6.742;2023-03-03T05:40:45;101941.69;;;3.91;76.17
8699;BME280;4386;51.236;6.742;2023-03-03T05:41:48;101944.34;;;3.90;76.23
8699;BME280;4386;51.236;6.742;2023-03-03T05:42:50;101945.28;;;3.89;76.44
8699;BME280;4386;51.236;6.742;2023-03-03T05:43:53;101946.19;;;3.88;76.44
8699;BME280;4386;51.236;6.742;2023-03-03T05:44:54;101943.56;;;3.88;76.20
8699;BME280;4386;51.236;6.742;2023-03-03T05:45:57;101949.69;;;3.87;76.59
8699;BME280;4386;51.236;6.742;2023-03-03T05:46:59;101949.66;;;3.88;76.52
8699;BME280;4386;51.236;6.742;2023-03-03T05:48:01;101947.03;;;3.88;76.46
8699;BME280;4386;51.236;6.742;2023-03-03T05:49:05;101954.00;;;3.89;76.32
8699;BME280;4386;51.236;6.742;2023-03-03T05:50:09;101955.78;;;3.89;76.32
8699;BME280;4386;51.236;6.742;2023-03-03T05:51:12;101952.31;;;3.87;76.44
8699;BME280;4386;51.236;6.742;2023-03-03T05:52:15;101946.28;;;3.85;76.24
8699;BME280;4386;51.236;6.742;2023-03-03T05:53:19;101948.94;;;3.83;76.30
8699;BME280;4386;51.236;6.742;2023-03-03T05:54:21;101947.28;;;3.81;76.08
8699;BME280;4386;51.236;6.742;2023-03-03T05:55:23;101945.47;;;3.83;76.38
8699;BME280;4386;51.236;6.742;2023-03-03T05:56:26;101942.84;;;3.83;76.20
8699;BME280;4386;51.236;6.742;2023-03-03T05:57:30;101942.84;;;3.83;76.15
8699;BME280;4386;51.236;6.742;2023-03-03T05:58:33;101954.16;;;3.83;75.98
8699;BME280;4386;51.236;6.742;2023-03-03T05:59:34;101948.03;;;3.84;76.24
8699;BME280;4386;51.236;6.742;2023-03-03T06:00:37;101950.66;;;3.84;75.98
8699;BME280;4386;51.236;6.742;2023-03-03T06:01:40;101954.25;;;3.82;75.88
8699;BME280;4386;51.236;6.742;2023-03-03T06:02:42;101949.88;;;3.81;76.43
8699;BME280;4386;51.236;6.742;2023-03-03T06:03:44;101952.50;;;3.81;76.26
8699;BME280;4386;51.236;6.742;2023-03-03T06:04:47;101954.16;;;3.83;76.29
8699;BME280;4386;51.236;6.742;2023-03-03T06:05:54;101947.13;;;3.85;76.42
8699;BME280;4386;51.236;6.742;2023-03-03T06:06:57;101955.81;;;3.87;76.66
8699;BME280;4386;51.236;6.742;2023-03-03T06:07:58;101956.66;;;3.88;76.16
8699;BME280;4386;51.236;6.742;2023-03-03T06:09:01;101957.56;;;3.87;76.18
8699;BME280;4386;51.236;6.742;2023-03-03T06:10:12;101967.19;;;3.86;75.98
8699;BME280;4386;51.236;6.742;2023-03-03T06:11:15;101963.72;;;3.86;76.24
8699;BME280;4386;51.236;6.742;2023-03-03T06:12:18;101965.44;;;3.87;76.40
8699;BME280;4386;51.236;6.742;2023-03-03T06:13:22;101968.13;;;3.85;76.19
8699;BME280;4386;51.236;6.742;2023-03-03T06:14:27;101968.97;;;3.86;76.08
8699;BME280;4386;51.236;6.742;2023-03-03T06:15:30;101974.22;;;3.86;75.95
8699;BME280;4386;51.236;6.742;2023-03-03T06:16:32;101972.50;;;3.85;76.09
8699;BME280;4386;51.236;6.742;2023-03-03T06:17:34;101986.50;;;3.84;76.12
8699;BME280;4386;51.236;6.742;2023-03-03T06:18:37;101988.31;;;3.82;75.95
8699;BME280;4386;51.236;6.742;2023-03-03T06:19:38;101983.09;;;3.80;76.27
8699;BME280;4386;51.236;6.742;2023-03-03T06:20:41;101989.22;;;3.81;76.34
8699;BME280;4386;51.236;6.742;2023-03-03T06:21:44;101989.28;;;3.79;76.17
8699;BME280;4386;51.236;6.742;2023-03-03T06:22:47;101986.69;;;3.78;76.08
8699;BME280;4386;51.236;6.742;2023-03-03T06:23:48;101997.25;;;3.75;76.36
8699;BME280;4386;51.236;6.742;2023-03-03T06:24:51;101991.13;;;3.76;76.26
8699;BME280;4386;51.236;6.742;2023-03-03T06:25:52;101992.00;;;3.76;76.24
8699;BME280;4386;51.236;6.742;2023-03-03T06:26:55;101990.16;;;3.78;76.31
8699;BME280;4386;51.236;6.742;2023-03-03T06:27:58;101992.72;;;3.80;76.35
8699;BME280;4386;51.236;6.742;2023-03-03T06:29:00;101998.91;;;3.79;76.02
8699;BME280;4386;51.236;6.742;2023-03-03T06:30:02;101998.06;;;3.77;76.16
8699;BME280;4386;51.236;6.742;2023-03-03T06:31:15;101997.25;;;3.75;75.96
8699;BME280;4386;51.236;6.742;2023-03-03T06:32:17;102001.63;;;3.76;75.91
8699;BME280;4386;51.236;6.742;2023-03-03T06:33:19;102003.31;;;3.77;76.42